Time;durP1;ratioP1;P1;durP2;ratioP2;P2;SDS_P1;SDS_P2;PMS_P1;PMS_P2;Temp;Humidity;BMP_temperature;BMP_pressure;BME280_temperature;BME280_humidity;BME280_pressure;Samples;Min_cycle;Max_cycle;Signal;HPM_P1;HPM_P2
2023/01/04 00:01:18;;;;;;;5.20;2.03;;;;;;;12.62;59.99;101875.47;6155155;23;20099;-71
2023/01/04 00:03:44;;;;;;;6.13;2.00;;;;;;;12.61;60.09;101864.78;6180813;23;20017;-70
2023/01/04 00:06:14;;;;;;;8.65;2.47;;;;;;;12.61;60.05;101859.38;6155137;23;20663;-71
2023/01/04 00:08:41;;;;;;;6.20;2.58;;;;;;;12.60;60.13;101855.81;6181668;23;20021;-71
2023/01/04 00:11:19;;;;;;;9.77;2.47;;;;;;;12.60;60.49;101853.13;6181392;23;20027;-71
2023/01/04 00:13:49;;;;;;;7.97;2.50;;;;;;;12.59;60.25;101837.06;6181279;23;20020;-72
2023/01/04 00:16:18;;;;;;;6.65;2.63;;;;;;;12.59;60.56;101837.06;6155041;23;20021;-71
2023/01/04 00:18:46;;;;;;;5.10;2.50;;;;;;;12.57;60.43;101834.47;6155531;23;20045;-71
2023/01/04 00:21:18;;;;;;;8.20;2.50;;;;;;;12.56;60.73;101826.47;6181289;23;20021;-71
2023/01/04 00:23:47;;;;;;;6.07;2.20;;;;;;;12.57;60.93;101825.50;6181260;23;20016;-71
2023/01/04 00:26:17;;;;;;;5.47;2.47;;;;;;;12.55;60.84;101832.81;6181460;23;20442;-71
2023/01/04 00:28:44;;;;;;;4.40;2.38;;;;;;;12.54;60.88;101815.78;6155036;23;20028;-71
2023/01/04 00:31:20;;;;;;;6.03;2.40;;;;;;;12.56;60.92;101815.69;6181227;23;20021;-70
2023/01/04 00:33:46;;;;;;;6.72;2.45;;;;;;;12.56;61.19;101813.88;6154605;23;20021;-71
2023/01/04 00:36:14;;;;;;;6.45;2.40;;;;;;;12.57;61.40;101810.22;6181437;23;20039;-71
2023/01/04 00:38:41;;;;;;;5.80;3.00;;;;;;;12.58;61.12;101803.84;6181201;23;20027;-72
2023/01/04 00:41:09;;;;;;;7.68;2.75;;;;;;;12.57;61.09;101798.56;6181955;23;20027;-71
2023/01/04 00:43:53;;;;;;;6.25;2.38;;;;;;;12.58;61.34;101793.06;6154829;23;20025;-71
2023/01/04 00:46:20;;;;;;;8.63;2.30;;;;;;;12.58;61.53;101794.91;6181401;23;20015;-70
2023/01/04 00:48:47;;;;;;;6.60;2.63;;;;;;;12.55;61.71;101779.81;6180757;23;20021;-70
2023/01/04 00:51:14;;;;;;;8.35;2.88;;;;;;;12.55;61.76;101774.41;6181094;22;20017;-70
2023/01/04 00:53:41;;;;;;;7.68;2.20;;;;;;;12.53;61.78;101764.69;6180897;23;20077;-71
2023/01/04 00:56:07;;;;;;;5.60;2.15;;;;;;;12.54;61.76;101767.28;6181579;23;20396;-71
2023/01/04 00:58:34;;;;;;;7.20;2.67;;;;;;;12.54;61.64;101751.13;6181439;23;20067;-71
2023/01/04 01:01:07;;;;;;;5.88;2.55;;;;;;;12.55;62.05;101766.31;6182465;23;20024;-71
2023/01/04 01:03:34;;;;;;;6.38;2.42;;;;;;;12.54;62.28;101750.25;6181788;23;20027;-71
2023/01/04 01:06:06;;;;;;;8.82;2.30;;;;;;;12.54;62.32;101748.44;6182396;23;20366;-70
2023/01/04 01:08:33;;;;;;;5.55;2.55;;;;;;;12.54;62.29;101744.88;6182357;23;20036;-70
2023/01/04 01:11:08;;;;;;;4.53;2.03;;;;;;;12.56;62.62;101748.34;6182276;23;20014;-72
2023/01/04 01:13:36;;;;;;;5.43;2.30;;;;;;;12.56;62.24;101746.50;6155849;23;20039;-72
2023/01/04 01:16:05;;;;;;;5.88;2.20;;;;;;;12.58;62.32;101741.00;6156660;23;20020;-72
2023/01/04 01:18:33;;;;;;;5.13;2.20;;;;;;;12.58;62.54;101736.47;6182673;23;20074;-73
2023/01/04 01:21:04;;;;;;;6.45;2.20;;;;;;;12.58;62.84;101728.41;6182375;23;20443;-74
2023/01/04 01:23:31;;;;;;;5.45;2.40;;;;;;;12.60;62.68;101739.09;6155769;23;20009;-74
2023/01/04 01:26:01;;;;;;;6.13;2.35;;;;;;;12.60;62.81;101737.25;6182232;23;20328;-72
2023/01/04 01:28:29;;;;;;;6.82;2.28;;;;;;;12.63;63.09;101728.09;6181970;23;20088;-73
2023/01/04 01:30:58;;;;;;;4.93;2.20;;;;;;;12.63;62.83;101722.72;6182081;23;20017;-73
2023/01/04 01:33:32;;;;;;;4.65;1.92;;;;;;;12.65;62.96;101718.97;6181941;23;20351;-72
2023/01/04 01:36:00;;;;;;;4.70;1.90;;;;;;;12.65;63.19;101718.13;6182564;23;20020;-72
2023/01/04 01:38:27;;;;;;;5.78;2.03;;;;;;;12.66;63.32;101703.69;6182081;23;20451;-70
2023/01/04 01:40:54;;;;;;;6.57;2.15;;;;;;;12.67;63.24;101710.78;6182059;23;20062;-71
2023/01/04 01:43:41;;;;;;;5.68;2.00;;;;;;;12.68;63.31;101713.38;6181886;23;20040;-70
2023/01/04 01:46:09;;;;;;;6.32;2.08;;;;;;;12.71;63.41;101709.63;6182167;23;20062;-71
2023/01/04 01:48:37;;;;;;;3.40;1.80;;;;;;;12.72;63.33;101714.91;6155556;23;20021;-71
2023/01/04 01:51:04;;;;;;;3.72;1.85;;;;;;;12.73;63.64;101707.69;6131324;23;20049;-73
2023/01/04 01:53:35;;;;;;;3.42;2.13;;;;;;;12.76;63.42;101701.22;6155478;23;20027;-70
2023/01/04 01:56:04;;;;;;;5.53;1.92;;;;;;;12.78;63.36;101694.78;6131550;23;20457;-71
2023/01/04 01:58:35;;;;;;;2.67;1.40;;;;;;;12.79;63.41;101706.41;6155886;23;20454;-71
2023/01/04 02:01:02;;;;;;;2.80;1.50;;;;;;;12.79;63.94;101696.50;6182224;23;20439;-71
2023/01/04 02:03:36;;;;;;;2.30;1.50;;;;;;;12.81;63.86;101696.41;6181848;23;20040;-70
2023/01/04 02:06:07;;;;;;;3.08;1.92;;;;;;;12.83;63.82;101698.03;6182504;23;20017;-71
2023/01/04 02:08:36;;;;;;;4.00;1.73;;;;;;;12.86;63.96;101694.25;6182352;23;20010;-71
2023/01/04 02:11:04;;;;;;;2.40;1.85;;;;;;;12.87;64.23;101694.16;6181175;23;20037;-71
2023/01/04 02:16:46;;;;;;;3.17;2.00;;;;;;;12.89;63.86;101689.53;6181869;23;20343;-70
2023/01/04 02:19:34;;;;;;;4.82;2.03;;;;;;;12.88;63.96;101684.25;6181895;23;20024;-70
2023/01/04 02:22:19;;;;;;;2.45;1.63;;;;;;;12.90;63.91;101685.00;6181575;23;20017;-69
2023/01/04 02:25:10;;;;;;;2.97;1.83;;;;;;;12.88;64.23;101690.50;6181984;23;20017;-70
2023/01/04 02:27:58;;;;;;;3.55;1.77;;;;;;;12.90;64.07;101679.59;6155373;23;20013;-70
2023/01/04 02:30:42;;;;;;;5.68;1.90;;;;;;;12.94;64.07;101678.44;6182428;23;20024;-71
2023/01/04 02:33:52;;;;;;;5.63;1.85;;;;;;;12.94;63.93;101684.69;6181536;23;20022;-71
2023/01/04 02:36:39;;;;;;;3.03;1.73;;;;;;;12.96;64.01;101661.19;6137247;23;20021;-71
2023/01/04 02:39:34;;;;;;;3.50;1.70;;;;;;;12.99;64.21;101666.38;6181958;23;20088;-71
2023/01/04 02:45:37;;;;;;;2.17;1.70;;;;;;;12.99;64.42;101652.03;6181890;23;20358;-71
2023/01/04 02:50:56;;;;;;;2.58;1.90;;;;;;;13.00;64.27;101641.13;6182009;23;20487;-72
2023/01/04 02:53:32;;;;;;;1.98;1.58;;;;;;;13.01;64.36;101625.81;6155423;23;20017;-71
2023/01/04 02:56:09;;;;;;;4.55;2.13;;;;;;;13.03;64.51;101630.13;6181975;23;20447;-73
2023/01/04 02:59:01;;;;;;;4.97;2.00;;;;;;;13.05;64.52;101627.31;6155853;23;20017;-71
2023/01/04 03:07:45;;;;;;;3.28;1.80;;;;;;;13.11;64.61;101616.13;6182363;23;20083;-71
2023/01/04 03:10:16;;;;;;;3.33;1.77;;;;;;;13.14;64.54;101604.25;6181858;23;20017;-70
2023/01/04 03:12:51;;;;;;;2.70;1.70;;;;;;;13.15;65.04;101605.97;6155302;23;20356;-71
2023/01/04 03:15:39;;;;;;;2.00;1.73;;;;;;;13.16;64.71;101588.81;6156152;23;20021;-71
2023/01/04 03:18:12;;;;;;;3.58;1.60;;;;;;;13.20;64.97;101590.38;6181837;23;20021;-71
2023/01/04 03:20:41;;;;;;;1.60;1.38;;;;;;;13.21;64.57;101595.66;6155798;23;20044;-69
2023/01/04 03:49:48;;;;;;;1.65;1.52;;;;;;;13.36;64.74;101559.50;6155155;23;20021;-72
2023/01/04 03:52:17;;;;;;;2.13;1.38;;;;;;;13.39;65.12;101554.88;6181346;23;20020;-70
2023/01/04 03:54:47;;;;;;;1.60;1.30;;;;;;;13.40;65.32;101552.09;6156233;23;20013;-71
2023/01/04 03:57:15;;;;;;;1.92;1.35;;;;;;;13.41;64.94;101543.00;6181952;23;20071;-70
2023/01/04 03:59:49;;;;;;;1.95;1.67;;;;;;;13.41;65.32;101540.31;6182719;23;20092;-70
2023/01/04 04:02:23;;;;;;;2.75;2.03;;;;;;;13.44;65.37;101541.94;6181485;23;20443;-70
2023/01/04 04:10:20;;;;;;;2.63;1.77;;;;;;;13.54;65.18;101534.91;6181569;23;20018;-70
2023/01/04 04:12:47;;;;;;;2.03;1.77;;;;;;;13.52;65.12;101526.91;6181573;23;20013;-70
2023/01/04 04:15:15;;;;;;;1.90;1.80;;;;;;;13.53;65.28;101534.03;6181600;23;20100;-70
2023/01/04 04:17:41;;;;;;;1.73;1.63;;;;;;;13.56;65.19;101527.56;6181518;23;20017;-71
2023/01/04 04:20:09;;;;;;;2.45;1.92;;;;;;;13.58;65.22;101533.69;6181415;23;20043;-71
2023/01/04 04:22:35;;;;;;;3.22;1.80;;;;;;;13.59;65.21;101527.31;6181250;23;20340;-70
2023/01/04 04:25:02;;;;;;;2.63;2.00;;;;;;;13.62;65.37;101529.81;6181523;23;20352;-70
2023/01/04 04:27:29;;;;;;;3.20;2.08;;;;;;;13.64;65.36;101522.47;6181471;23;20051;-70
2023/01/04 04:29:55;;;;;;;2.08;1.88;;;;;;;13.67;65.46;101522.22;6155665;22;20017;-69
2023/01/04 04:32:22;;;;;;;2.80;1.83;;;;;;;13.70;65.55;101515.75;6181016;23;20017;-69
2023/01/04 04:34:48;;;;;;;2.10;1.90;;;;;;;13.72;65.62;101521.91;6182349;23;20456;-70
2023/01/04 04:37:15;;;;;;;3.67;2.10;;;;;;;13.73;65.47;101515.53;6181863;22;20043;-71
2023/01/04 04:39:42;;;;;;;2.10;1.80;;;;;;;13.73;65.19;101510.97;6182739;23;20013;-71
2023/01/04 04:42:08;;;;;;;1.92;1.73;;;;;;;13.74;65.53;101509.16;6182074;23;20028;-71
2023/01/04 04:44:35;;;;;;;2.17;1.60;;;;;;;13.76;65.59;101502.66;6182594;23;20470;-71
2023/01/04 04:47:02;;;;;;;1.65;1.55;;;;;;;13.74;65.38;101499.22;6182955;23;20013;-71
2023/01/04 04:49:29;;;;;;;3.20;1.90;;;;;;;13.76;65.63;101501.78;6182690;23;20051;-70
2023/01/04 04:51:55;;;;;;;2.97;2.00;;;;;;;13.77;65.56;101490.03;6182190;23;20017;-71
2023/01/04 04:54:22;;;;;;;3.42;2.08;;;;;;;13.77;65.57;101490.88;6182488;23;20013;-70
2023/01/04 04:56:49;;;;;;;3.55;1.90;;;;;;;13.79;65.58;101493.47;6182535;23;20032;-70
2023/01/04 04:59:16;;;;;;;2.67;2.10;;;;;;;13.80;65.30;101490.66;6182483;23;20018;-70
2023/01/04 05:01:42;;;;;;;2.45;2.08;;;;;;;13.82;65.35;101502.19;6182238;23;20321;-71
2023/01/04 05:04:15;;;;;;;2.50;2.30;;;;;;;13.83;65.37;101500.38;6182276;23;20067;-70
2023/01/04 05:06:43;;;;;;;2.97;2.53;;;;;;;13.83;65.49;101490.44;6182692;23;20040;-70
2023/01/04 05:09:11;;;;;;;2.70;2.40;;;;;;;13.85;65.29;101483.06;6182060;22;20025;-71
2023/01/04 05:14:23;;;;;;;2.85;2.63;;;;;;;13.90;65.51;101482.72;6182300;23;20013;-71
2023/01/04 05:16:49;;;;;;;2.80;2.60;;;;;;;13.90;65.23;101486.28;6156043;23;20108;-70
2023/01/04 05:19:16;;;;;;;3.20;2.75;;;;;;;13.92;65.74;101483.47;6156172;23;20463;-70
2023/01/04 05:21:43;;;;;;;3.03;2.72;;;;;;;13.90;65.32;101480.91;6155785;23;20021;-69
2023/01/04 05:24:11;;;;;;;4.38;3.28;;;;;;;13.92;65.70;101473.53;6182245;23;20096;-71
2023/01/04 05:26:38;;;;;;;3.15;2.67;;;;;;;13.94;65.41;101471.59;6155955;23;20066;-70
2023/01/04 05:29:05;;;;;;;5.40;3.22;;;;;;;13.96;65.92;101475.03;6182239;23;20383;-70
2023/01/04 05:31:32;;;;;;;3.90;3.50;;;;;;;13.96;65.92;101464.22;6182262;23;20014;-70
2023/01/04 05:33:58;;;;;;;3.80;3.38;;;;;;;13.99;65.96;101463.13;6155715;23;20040;-70
2023/01/04 05:36:25;;;;;;;3.88;3.42;;;;;;;14.02;65.64;101459.34;6182234;23;20014;-71
2023/01/04 05:38:52;;;;;;;4.72;3.70;;;;;;;14.05;65.63;101456.41;6182239;23;20443;-71
2023/01/04 05:44:03;;;;;;;3.97;3.33;;;;;;;14.09;65.86;101442.56;6182237;23;20040;-69
2023/01/04 05:46:30;;;;;;;4.32;3.75;;;;;;;14.08;65.96;101438.13;6155895;23;20047;-69
2023/01/04 05:48:57;;;;;;;4.00;3.60;;;;;;;14.11;65.82;101443.28;6182710;23;20009;-70
2023/01/04 05:51:23;;;;;;;4.65;3.97;;;;;;;14.13;65.68;101437.81;6182666;23;20017;-70
2023/01/04 05:53:50;;;;;;;7.43;3.70;;;;;;;14.14;65.65;101436.81;6181886;23;20095;-70
2023/01/04 05:56:16;;;;;;;6.13;4.25;;;;;;;14.15;65.77;101428.59;6182626;23;20017;-70
2023/01/04 05:58:43;;;;;;;4.63;4.00;;;;;;;14.17;65.84;101434.75;6155963;23;20461;-71
2023/01/04 06:01:14;;;;;;;6.15;3.63;;;;;;;14.15;66.09;101427.75;6155751;23;20021;-71
2023/01/04 06:03:40;;;;;;;4.85;3.25;;;;;;;14.18;65.67;101424.81;6155856;23;20021;-71
2023/01/04 06:06:07;;;;;;;4.55;3.40;;;;;;;14.19;65.67;101419.28;6182722;23;20021;-72
2023/01/04 06:08:34;;;;;;;6.25;3.50;;;;;;;14.20;65.96;101433.66;6181661;23;20024;-71
2023/01/04 06:11:00;;;;;;;5.18;3.17;;;;;;;14.20;66.03;101429.13;6182139;23;20439;-72
2023/01/04 06:13:27;;;;;;;5.65;3.10;;;;;;;14.23;65.67;101422.63;6181727;23;20396;-71
2023/01/04 06:15:53;;;;;;;5.68;3.58;;;;;;;14.24;65.94;101418.94;6181848;23;20013;-71
2023/01/04 06:18:20;;;;;;;4.93;3.40;;;;;;;14.23;65.84;101412.66;6155752;23;20019;-70
2023/01/04 06:20:50;;;;;;;4.00;3.40;;;;;;;14.25;66.18;101409.84;6182341;23;20101;-71
2023/01/04 06:23:17;;;;;;;4.40;3.17;;;;;;;14.26;65.89;101400.75;6155607;23;20451;-72
2023/01/04 06:25:44;;;;;;;4.88;3.78;;;;;;;14.27;66.28;101416.84;6181921;23;20063;-71
2023/01/04 06:28:10;;;;;;;5.32;3.10;;;;;;;14.30;66.35;101424.72;6156325;22;20024;-71
2023/01/04 06:30:37;;;;;;;4.15;3.33;;;;;;;14.31;65.93;101420.19;6182228;23;20510;-71
2023/01/04 06:33:03;;;;;;;4.43;3.45;;;;;;;14.32;65.86;101411.09;6190217;23;20043;-72
2023/01/04 06:35:30;;;;;;;3.40;3.10;;;;;;;14.35;66.17;101410.84;6182829;23;20096;-72
2023/01/04 06:37:56;;;;;;;4.97;3.10;;;;;;;14.35;66.37;101408.16;6182131;23;20020;-71
2023/01/04 06:40:23;;;;;;;4.85;3.13;;;;;;;14.38;66.31;101404.34;6182134;23;20514;-71
2023/01/04 06:42:50;;;;;;;3.40;3.10;;;;;;;14.39;66.31;101412.34;6155928;23;20027;-70
2023/01/04 06:45:16;;;;;;;4.10;3.25;;;;;;;14.39;66.03;101406.94;6181575;23;20023;-71
2023/01/04 06:47:43;;;;;;;3.78;3.00;;;;;;;14.41;66.05;101404.97;6181913;23;20021;-70
2023/01/04 06:50:10;;;;;;;3.88;2.83;;;;;;;14.42;65.97;101398.63;6181787;23;20013;-72
2023/01/04 06:52:37;;;;;;;3.55;2.95;;;;;;;14.42;66.21;101401.31;6181294;23;20048;-72
2023/01/04 06:55:05;;;;;;;3.88;3.15;;;;;;;14.44;66.04;101409.31;6181877;23;20069;-70
2023/01/04 06:57:32;;;;;;;3.75;3.03;;;;;;;14.46;66.17;101413.59;6154783;22;20051;-71
2023/01/04 06:59:58;;;;;;;3.42;2.97;;;;;;;14.46;66.07;101421.72;6181774;23;20017;-70
2023/01/04 07:02:25;;;;;;;4.05;3.50;;;;;;;14.47;65.92;101415.34;6181219;23;20033;-70
2023/01/04 07:04:52;;;;;;;4.18;3.33;;;;;;;14.47;66.31;101426.16;6155982;23;20393;-71
2023/01/04 07:07:19;;;;;;;3.05;2.75;;;;;;;14.47;66.52;101418.03;6180770;23;20024;-70
2023/01/04 07:09:45;;;;;;;4.97;2.90;;;;;;;14.48;66.56;101418.91;6180455;23;20020;-71
2023/01/04 07:12:12;;;;;;;3.03;2.45;;;;;;;14.47;66.48;101404.53;6180496;23;20096;-70
2023/01/04 07:14:38;;;;;;;3.22;2.30;;;;;;;14.47;66.33;101401.81;6180512;23;20037;-70
2023/01/04 07:17:05;;;;;;;3.70;2.33;;;;;;;14.48;66.37;101400.84;6180901;23;20015;-70
2023/01/04 07:19:32;;;;;;;3.05;2.58;;;;;;;14.48;66.67;101417.06;6154160;23;20047;-70
2023/01/04 07:22:00;;;;;;;3.03;2.80;;;;;;;14.49;66.49;101401.69;6180950;23;20018;-70
2023/01/04 07:24:27;;;;;;;2.45;1.80;;;;;;;14.52;66.60;101388.81;6182175;23;20444;-71
2023/01/04 07:26:58;;;;;;;3.25;2.10;;;;;;;14.53;66.79;101390.53;6181815;23;20044;-71
2023/01/04 07:29:25;;;;;;;2.22;1.92;;;;;;;14.55;66.51;101388.56;6181937;23;20427;-71
2023/01/04 07:31:52;;;;;;;3.92;2.15;;;;;;;14.57;66.42;101383.03;6181551;23;20043;-71
2023/01/04 07:34:21;;;;;;;3.35;2.00;;;;;;;14.59;66.41;101378.38;6181772;23;20078;-70
2023/01/04 07:36:48;;;;;;;3.05;1.95;;;;;;;14.62;66.53;101378.13;6181897;23;20112;-71
2023/01/04 07:39:16;;;;;;;3.15;2.10;;;;;;;14.65;66.65;101379.72;6181736;23;20014;-70
2023/01/04 07:41:46;;;;;;;4.95;1.70;;;;;;;14.69;66.64;101386.59;6181485;23;20018;-71
2023/01/04 07:44:20;;;;;;;4.40;1.70;;;;;;;14.71;66.20;101368.41;6131821;23;20024;-77
2023/01/04 07:46:47;;;;;;;3.42;1.80;;;;;;;14.74;66.47;101373.56;6181340;22;20502;-71
2023/01/04 07:49:17;;;;;;;4.05;1.52;;;;;;;14.78;66.50;101365.09;6181555;23;20009;-73
2023/01/04 07:51:46;;;;;;;2.90;1.60;;;;;;;14.83;66.33;101359.31;6181164;23;20013;-73
2023/01/04 07:54:13;;;;;;;1.65;1.48;;;;;;;14.88;66.50;101363.41;6181522;23;20075;-73
2023/01/04 07:56:40;;;;;;;4.90;1.60;;;;;;;14.92;66.51;101358.59;6181649;23;20461;-73
2023/01/04 07:59:07;;;;;;;3.13;1.35;;;;;;;14.96;66.42;101351.97;6155298;23;20516;-73
2023/01/04 08:01:36;;;;;;;3.58;1.40;;;;;;;15.01;66.24;101349.75;6181517;23;20382;-73
2023/01/04 08:04:04;;;;;;;2.08;1.38;;;;;;;15.05;66.31;101334.97;6181579;23;20032;-73
2023/01/04 08:06:32;;;;;;;3.08;1.33;;;;;;;15.08;66.08;101332.03;6181553;23;20013;-73
2023/01/04 08:08:59;;;;;;;2.10;1.50;;;;;;;15.08;65.96;101326.59;6180815;23;20036;-73
2023/01/04 08:11:26;;;;;;;2.33;1.35;;;;;;;15.09;65.80;101338.28;6179474;22;20403;-74
2023/01/04 08:13:53;;;;;;;4.78;1.23;;;;;;;15.10;65.79;101343.56;6181063;23;20070;-70
2023/01/04 08:16:21;;;;;;;6.90;1.33;;;;;;;15.11;66.14;101341.72;6181397;23;20028;-70
2023/01/04 08:18:55;;;;;;;3.33;1.00;;;;;;;15.11;65.89;101342.59;6178699;23;20066;-70
2023/01/04 08:21:23;;;;;;;3.35;1.65;;;;;;;15.14;65.66;101341.47;6181116;23;20466;-70
2023/01/04 08:23:51;;;;;;;4.55;1.38;;;;;;;15.15;65.53;101346.75;6153947;23;20021;-71
2023/01/04 08:26:20;;;;;;;2.15;1.20;;;;;;;15.18;65.67;101349.22;6181252;23;20084;-71
2023/01/04 08:28:48;;;;;;;3.38;1.50;;;;;;;15.20;65.68;101349.94;6181210;23;20017;-70
2023/01/04 08:31:18;;;;;;;1.42;1.08;;;;;;;15.23;65.57;101340.72;6180979;23;20431;-71
2023/01/04 08:33:45;;;;;;;2.53;1.10;;;;;;;15.25;65.83;101342.31;6180191;22;20070;-71
2023/01/04 08:36:24;;;;;;;3.10;1.20;;;;;;;15.27;65.51;101353.00;6181310;23;20051;-73
2023/01/04 08:38:58;;;;;;;4.43;1.50;;;;;;;15.30;65.58;101349.19;6181010;23;20013;-72
2023/01/04 08:41:29;;;;;;;2.55;0.98;;;;;;;15.31;65.44;101356.31;6181107;23;20443;-71
2023/01/04 08:44:21;;;;;;;3.90;1.30;;;;;;;15.33;65.45;101355.19;6153491;23;20025;-71
2023/01/04 08:46:49;;;;;;;3.05;1.25;;;;;;;15.34;65.15;101345.25;6181391;23;20020;-71
2023/01/04 08:49:16;;;;;;;3.10;1.13;;;;;;;15.37;65.41;101344.97;6177730;23;20271;-72
2023/01/04 08:51:44;;;;;;;3.00;1.35;;;;;;;15.38;65.63;101349.41;6178526;23;20036;-72
2023/01/04 08:54:11;;;;;;;1.95;1.20;;;;;;;15.39;65.59;101349.28;6180241;22;20061;-73
2023/01/04 08:56:37;;;;;;;5.20;1.45;;;;;;;15.41;65.57;101357.28;6180611;23;20013;-75
2023/01/04 08:59:05;;;;;;;3.63;1.33;;;;;;;15.42;65.37;101359.84;6180695;23;20066;-71
2023/01/04 09:01:33;;;;;;;4.63;1.45;;;;;;;15.45;65.38;101361.44;6180702;23;20009;-71
2023/01/04 09:04:00;;;;;;;4.50;1.38;;;;;;;15.46;65.44;101355.91;6154980;23;20025;-71
2023/01/04 09:06:27;;;;;;;2.47;1.10;;;;;;;15.48;65.20;101367.47;6181173;23;20013;-72
2023/01/04 09:08:55;;;;;;;4.78;1.40;;;;;;;15.49;65.00;101360.19;6180497;23;20431;-71
2023/01/04 09:11:21;;;;;;;3.15;1.20;;;;;;;15.50;65.16;101364.63;6180602;23;20017;-71
2023/01/04 09:13:48;;;;;;;4.70;1.27;;;;;;;15.50;64.74;101351.09;6180339;23;20435;-71
2023/01/04 09:16:17;;;;;;;5.47;1.30;;;;;;;15.50;65.23;101349.25;6180812;23;20009;-72
2023/01/04 09:18:45;;;;;;;3.00;1.60;;;;;;;15.52;65.18;101357.22;6180505;23;20024;-70
2023/01/04 09:21:15;;;;;;;2.38;1.25;;;;;;;15.54;65.17;101349.84;6181797;23;20379;-72
2023/01/04 09:23:42;;;;;;;3.50;1.63;;;;;;;15.57;65.38;101341.47;6155563;23;20021;-71
2023/01/04 09:26:12;;;;;;;3.50;1.20;;;;;;;15.60;64.76;101346.66;6156138;23;20014;-71
2023/01/04 09:28:39;;;;;;;4.55;1.23;;;;;;;15.63;65.26;101342.84;6182059;23;20040;-71
2023/01/04 09:31:14;;;;;;;4.75;1.48;;;;;;;15.64;64.95;101334.59;6181968;23;20100;-72
2023/01/04 09:33:43;;;;;;;3.78;1.35;;;;;;;15.66;64.75;101345.31;6181789;22;20014;-72
2023/01/04 09:36:29;;;;;;;3.17;1.10;;;;;;;15.67;64.96;101345.19;6181842;23;20017;-74
2023/01/04 09:38:56;;;;;;;5.30;1.48;;;;;;;15.69;65.16;101340.50;6182218;23;20461;-71
2023/01/04 09:41:26;;;;;;;4.00;1.17;;;;;;;15.70;64.96;101339.50;6181999;23;20028;-70
2023/01/04 09:43:55;;;;;;;4.07;1.48;;;;;;;15.72;65.03;101345.66;6181510;22;20048;-72
2023/01/04 09:46:43;;;;;;;4.05;1.38;;;;;;;15.74;64.54;101343.66;6182087;23;20013;-71
2023/01/04 09:49:09;;;;;;;4.22;1.30;;;;;;;15.76;64.87;101351.66;6181494;23;20010;-72
2023/01/04 09:51:40;;;;;;;6.18;1.20;;;;;;;15.76;65.02;101333.56;6181805;23;20397;-72
2023/01/04 09:54:15;;;;;;;2.20;0.98;;;;;;;15.78;64.81;101350.53;6182433;23;20455;-72
2023/01/04 09:56:50;;;;;;;5.15;1.10;;;;;;;15.79;64.73;101354.09;6182034;23;20059;-72
2023/01/04 09:59:24;;;;;;;2.00;1.00;;;;;;;15.79;64.65;101340.56;6181913;23;20017;-72
2023/01/04 10:02:12;;;;;;;3.58;1.20;;;;;;;15.81;65.12;101333.16;6181945;23;20448;-72
2023/01/04 10:04:48;;;;;;;2.80;0.93;;;;;;;15.83;65.01;101336.59;6182227;23;20347;-73
2023/01/04 10:07:27;;;;;;;3.72;1.13;;;;;;;15.81;65.13;101341.28;6181980;23;20027;-73
2023/01/04 10:09:55;;;;;;;4.68;1.10;;;;;;;15.81;65.17;101342.16;6155601;23;20516;-72
2023/01/04 10:12:34;;;;;;;2.72;1.27;;;;;;;15.82;65.08;101341.16;6131009;23;20024;-72
2023/01/04 10:15:21;;;;;;;3.58;1.33;;;;;;;15.84;64.85;101333.78;6155611;23;20350;-72
2023/01/04 10:18:18;;;;;;;4.05;1.40;;;;;;;15.86;64.84;101326.38;6131251;23;20013;-72
2023/01/04 10:21:41;;;;;;;2.60;1.27;;;;;;;15.88;65.39;101324.38;6181773;23;20013;-72
2023/01/04 10:24:31;;;;;;;2.60;1.65;;;;;;;15.87;65.20;101336.22;6181942;23;20021;-72
2023/01/04 10:27:07;;;;;;;5.22;1.52;;;;;;;15.87;65.17;101332.66;6156077;23;20457;-73
2023/01/04 10:29:57;;;;;;;2.97;1.70;;;;;;;15.86;65.02;101339.06;6181724;23;20097;-73
2023/01/04 10:32:38;;;;;;;5.00;1.50;;;;;;;15.87;65.43;101332.66;6181137;23;20013;-73
2023/01/04 10:35:24;;;;;;;4.15;1.60;;;;;;;15.84;64.98;101336.47;6181676;23;20045;-73
2023/01/04 10:38:03;;;;;;;7.20;1.60;;;;;;;15.84;65.29;101332.91;6156208;23;20017;-72
2023/01/04 10:40:36;;;;;;;4.22;1.77;;;;;;;15.85;65.23;101329.22;6181473;23;20017;-73
2023/01/04 10:43:24;;;;;;;4.32;1.40;;;;;;;15.86;65.30;101336.34;6181484;23;20039;-72
2023/01/04 10:45:59;;;;;;;4.43;1.50;;;;;;;15.84;65.28;101328.34;6182231;22;20443;-73
2023/01/04 10:48:39;;;;;;;3.15;1.63;;;;;;;15.85;65.35;101329.22;6181586;23;20017;-72
2023/01/04 10:51:06;;;;;;;3.17;1.65;;;;;;;15.84;65.29;101313.94;6181507;23;20100;-71
2023/01/04 10:54:01;;;;;;;3.67;1.48;;;;;;;15.84;65.64;101316.66;6181183;23;20009;-73
2023/01/04 10:56:46;;;;;;;2.47;1.58;;;;;;;15.83;65.48;101321.22;6182375;23;20017;-73
2023/01/04 10:59:28;;;;;;;3.28;1.67;;;;;;;15.84;65.59;101328.34;6181199;23;20019;-72
2023/01/04 11:02:14;;;;;;;1.58;1.27;;;;;;;15.85;65.81;101319.25;6181296;23;20058;-72
2023/01/04 11:05:11;;;;;;;4.28;1.35;;;;;;;15.83;65.88;101310.38;6155855;23;20096;-72
2023/01/04 11:07:42;;;;;;;3.50;1.30;;;;;;;15.83;65.57;101315.81;6181665;23;20017;-72
2023/01/04 11:10:24;;;;;;;2.25;1.48;;;;;;;15.83;65.78;101323.06;6181434;23;20087;-72
2023/01/04 11:12:51;;;;;;;2.50;1.50;;;;;;;15.83;65.50;101307.69;6181184;23;20018;-72
2023/01/04 11:15:18;;;;;;;3.67;1.55;;;;;;;15.83;65.59;101318.50;6181583;23;20045;-73
2023/01/04 11:17:46;;;;;;;5.25;1.45;;;;;;;15.81;65.79;101312.38;6181853;22;20024;-73
2023/01/04 11:20:13;;;;;;;5.38;1.60;;;;;;;15.82;65.96;101315.94;6181163;23;20021;-73
2023/01/04 11:22:46;;;;;;;7.20;1.80;;;;;;;15.83;65.89;101320.34;6181076;23;20017;-72
2023/01/04 11:25:18;;;;;;;3.33;1.38;;;;;;;15.84;65.68;101319.38;6155624;23;20017;-73
2023/01/04 11:28:14;;;;;;;4.63;1.40;;;;;;;15.85;65.89;101312.97;6159764;22;20504;-73
2023/01/04 11:30:54;;;;;;;2.00;1.30;;;;;;;15.84;65.78;101316.66;6181418;23;20021;-73
2023/01/04 11:33:22;;;;;;;3.05;1.20;;;;;;;15.85;65.83;101313.81;6181227;23;20017;-72
2023/01/04 11:35:50;;;;;;;3.83;1.20;;;;;;;15.86;65.94;101320.97;6181689;23;20016;-73
2023/01/04 11:38:19;;;;;;;2.38;1.30;;;;;;;15.88;66.04;101310.00;6181504;23;20347;-72
2023/01/04 11:41:06;;;;;;;1.85;1.10;;;;;;;15.89;65.97;101309.84;6155035;23;20107;-72
2023/01/04 11:43:38;;;;;;;2.67;1.10;;;;;;;15.90;66.30;101294.47;6130693;23;20013;-72
2023/01/04 11:46:16;;;;;;;1.70;0.93;;;;;;;15.91;66.09;101295.31;6181930;23;20020;-72
2023/01/04 11:48:45;;;;;;;1.95;0.90;;;;;;;15.92;66.09;101306.03;6181400;23;20021;-72
2023/01/04 11:51:24;;;;;;;1.60;0.85;;;;;;;15.91;66.26;101306.16;6181455;23;20013;-72
2023/01/04 11:54:26;;;;;;;1.25;0.80;;;;;;;15.89;65.90;101317.97;6181329;23;20021;-73
2023/01/04 11:56:59;;;;;;;1.35;0.80;;;;;;;15.89;66.28;101323.41;6176585;23;20017;-73
2023/01/04 11:59:29;;;;;;;2.05;0.98;;;;;;;15.88;66.33;101316.25;6181258;23;20104;-74
2023/01/04 12:02:24;;;;;;;1.60;0.70;;;;;;;15.88;66.21;101318.13;6154886;22;20099;-73
2023/01/04 12:05:20;;;;;;;1.42;0.63;;;;;;;15.88;66.22;101301.88;6155057;23;20051;-73
2023/01/04 12:07:57;;;;;;;1.50;0.88;;;;;;;15.89;66.24;101309.84;6181527;23;20436;-74
2023/01/04 12:10:26;;;;;;;1.65;0.60;;;;;;;15.88;66.20;101312.69;6181178;22;20040;-73
2023/01/04 12:12:55;;;;;;;1.38;0.60;;;;;;;15.88;66.01;101313.56;6155177;22;20013;-73
2023/01/04 12:15:38;;;;;;;1.58;1.00;;;;;;;15.88;66.35;101316.25;6181033;23;20088;-73
2023/01/04 12:18:11;;;;;;;2.65;0.90;;;;;;;15.89;66.27;101314.41;6155043;23;20022;-73
2023/01/04 12:20:38;;;;;;;1.55;0.80;;;;;;;15.91;66.39;101319.69;6154716;23;20017;-73
2023/01/04 12:23:05;;;;;;;1.45;0.60;;;;;;;15.91;66.38;101308.88;6154659;23;20352;-73
2023/01/04 12:25:39;;;;;;;2.33;0.60;;;;;;;15.91;66.42;101303.44;6155301;23;20088;-73
2023/01/04 12:28:05;;;;;;;2.67;0.68;;;;;;;15.92;66.51;101314.16;6181270;23;20100;-73
2023/01/04 12:30:45;;;;;;;3.28;0.90;;;;;;;15.92;66.51;101316.00;6155175;23;20443;-73
2023/01/04 12:33:29;;;;;;;2.78;0.60;;;;;;;15.92;66.52;101299.75;6180907;23;20017;-73
2023/01/04 12:36:09;;;;;;;1.08;0.57;;;;;;;15.94;66.28;101316.72;6181505;23;20501;-73
2023/01/04 12:38:51;;;;;;;1.70;0.70;;;;;;;15.91;66.60;101304.31;6181294;23;20503;-73